Al Cenac — WDD5445 — position and weather

sailwx.info

Track history (hours):
 
Tides and Currents Weather Stations Pressure Air Temp Water Temp Dewpoint Dewpoint Depression Visibility Wind Speed Wind Dir Waves Ship Positions

Al Cenac

Owner: Caillou Island Towing Co, Inc., Houma, LA. More information available from US FCC via Universal Licensing System and Coast Guard Vessel Documentation Center.

Last reported at 2015-Mar-29 02:13 UTC. Time now 2015-Mar-29 04:21 UTC.
Position N 40°33' W 074°15'.

; draft 10 m.

MMSI: 367158530.

Date/timePositionNaut miles runAvg speedWind from/ knotsBaromVisibWave heightAir tempDewpointWater temp
2015-Mar-29 02:13N 40°33' W 074°15'0 0.0
2015-Mar-29 00:13N 40°33' W 074°15'1 0.7
2015-Mar-28 23:30N 40°32' W 074°15'2 1.8
2015-Mar-28 22:31N 40°33' W 074°13'4 4.0
2015-Mar-28 21:33N 40°37' W 074°12'4 0.8
2015-Mar-28 16:32N 40°33' W 074°14'7 6.2
2015-Mar-28 15:28N 40°38' W 074°08'0 0.0
2015-Mar-28 14:32N 40°38' W 074°08'0 0.0
2015-Mar-28 13:32N 40°38' W 074°08'0 0.0
2015-Mar-28 12:33N 40°38' W 074°08'0 0.0
2015-Mar-28 11:31N 40°38' W 074°08'4 4.7
2015-Mar-28 10:34N 40°36' W 074°12'3 0.6
2015-Mar-28 06:33N 40°38' W 074°12'3 2.8
2015-Mar-28 05:27N 40°38' W 074°08'0 0.0
2015-Mar-28 04:34N 40°38' W 074°08'0 0.0
2015-Mar-28 03:28N 40°38' W 074°08'0 0.0
2015-Mar-28 02:32N 40°38' W 074°08'0 0.0
2015-Mar-28 01:21N 40°38' W 074°08'0 0.0
2015-Mar-28 00:27N 40°38' W 074°08'0 0.0
2015-Mar-27 23:31N 40°38' W 074°08'0 0.0
2015-Mar-27 22:26N 40°38' W 074°08'0 0.0
2015-Mar-27 21:32N 40°38' W 074°08'3 3.0
2015-Mar-27 20:33N 40°38' W 074°12'2 1.8
2015-Mar-27 19:30N 40°36' W 074°12'0 0.0
2015-Mar-27 18:30N 40°36' W 074°12'0 0.0
2015-Mar-27 17:25N 40°36' W 074°12'1 0.7
2015-Mar-27 16:31N 40°36' W 074°12'0 0.0
2015-Mar-27 15:32N 40°36' W 074°12'4 2.0
2015-Mar-27 13:33N 40°39' W 074°09'3 2.6
2015-Mar-27 12:32N 40°39' W 074°05'2 2.0
2015-Mar-27 11:33N 40°39' W 074°08'0 0.3
2015-Mar-27 10:33N 40°38' W 074°08'0 0.0
2015-Mar-27 09:31N 40°38' W 074°08'0 0.0
2015-Mar-27 01:03N 40°39' W 074°08'2 4.0
2015-Mar-27 00:33N 40°39' W 074°05'1 0.6
2015-Mar-26 23:31N 40°39' W 074°06'5 4.8
2015-Mar-26 22:24N 40°36' W 074°12'2 0.1
2015-Mar-26 03:15N 40°39' W 074°11'1714300.4
2015-Mar-25 21:33N 40°39' W 111°51'17171738.2
2015-Mar-25 20:34N 40°38' W 074°08'0 0.0
2015-Mar-25 19:22N 40°38' W 074°08'0 0.0
2015-Mar-25 07:27N 40°38' W 074°08'0 0.0
2015-Mar-25 05:21N 40°38' W 074°08'1 1.8
2015-Mar-25 04:33N 40°39' W 074°06'0 0.1
2015-Mar-25 02:29N 40°39' W 074°06'3 3.3
2015-Mar-25 01:33N 40°41' W 074°03'8 7.7
2015-Mar-25 00:30N 40°47' W 073°56'5 4.8
2015-Mar-24 23:33N 40°43' W 073°58'9 9.1
2015-Mar-24 22:33N 40°38' W 074°09'8 7.2
2015-Mar-24 21:31N 40°33' W 074°15'6 0.5
2015-Mar-24 09:30N 40°38' W 074°12'3 1.0
2015-Mar-24 06:32N 40°38' W 074°08'1 0.1
2015-Mar-23 21:33N 40°39' W 074°07'2 1.6
2015-Mar-23 20:33N 40°40' W 074°08'1 1.2
2015-Mar-23 19:33N 40°41' W 074°08'2 0.5
2015-Mar-23 14:12N 40°38' W 074°08'0 0.0
2015-Mar-23 13:31N 40°38' W 074°08'0 0.0
2015-Mar-23 12:25N 40°38' W 074°08'0 0.0
2015-Mar-23 11:32N 40°38' W 074°08'0 0.0
2015-Mar-23 10:21N 40°38' W 074°08'0 0.0
2015-Mar-23 09:27N 40°38' W 074°08'0 0.0
2015-Mar-23 05:16N 40°38' W 074°08'3 4.5
2015-Mar-23 04:31N 40°38' W 074°12'1 0.5
2015-Mar-23 02:03N 40°37' W 074°12'5 8.2
2015-Mar-23 01:30N 40°33' W 074°15'6 3.1
2015-Mar-22 23:27N 40°38' W 074°12'3 1.2
2015-Mar-22 20:33N 40°39' W 074°07'1 0.8
2015-Mar-22 19:11N 40°39' W 074°06'5 1.5
2015-Mar-22 16:12N 40°38' W 074°12'3 3.7
2015-Mar-22 15:24N 40°38' W 074°08'0 0.0
2015-Mar-22 13:14N 40°38' W 074°08'1 1.5
2015-Mar-22 12:32N 40°39' W 074°07'1 0.9
2015-Mar-22 11:23N 40°38' W 074°08'0 0.0
2015-Mar-22 10:15N 40°38' W 074°08'0 0.0
2015-Mar-22 07:28N 40°38' W 074°08'4 3.1
2015-Mar-22 06:13N 40°37' W 074°12'2 0.6
2015-Mar-22 02:11N 40°39' W 074°11'4 7.0
2015-Mar-22 01:34N 40°39' W 074°05'4 4.2
2015-Mar-22 00:33N 40°39' W 074°11'1 0.2
2015-Mar-21 19:33N 40°38' W 074°09'2 2.0
2015-Mar-21 18:32N 40°39' W 074°07'0 0.0
2015-Mar-21 17:32N 40°39' W 074°07'1 0.3
2015-Mar-21 14:16N 40°38' W 074°08'0 0.0
2015-Mar-21 13:23N 40°38' W 074°08'0 0.0
2015-Mar-21 12:29N 40°38' W 074°08'0 0.0
2015-Mar-21 11:30N 40°38' W 074°08'0 0.0
2015-Mar-21 10:13N 40°38' W 074°08'0 0.0
2015-Mar-21 09:07N 40°38' W 074°08'2 0.4
2015-Mar-21 04:32N 40°39' W 074°05'11 9.7
2015-Mar-21 03:24N 40°47' W 073°55'5 5.9
2015-Mar-21 02:33N 40°43' W 073°59'6 6.0
2015-Mar-21 01:33N 40°39' W 074°05'7 1.7
2015-Mar-20 21:08N 40°34' W 074°13'5 0.5
2015-Mar-20 12:29N 40°39' W 074°11'1 1.2
2015-Mar-20 11:33N 40°38' W 074°09'1 1.1
2015-Mar-20 10:23N 40°38' W 074°08'0 0.0
2015-Mar-20 00:33N 40°38' W 074°08'1 0.8
2015-Mar-19 23:33N 40°38' W 074°09'1 0.7
2015-Mar-19 22:28N 40°39' W 074°10'0 0.0
2015-Mar-19 21:05N 40°39' W 074°10'0 0.0
2015-Mar-19 20:24N 40°39' W 074°10'0 0.0
2015-Mar-19 19:24N 40°39' W 074°10'1 0.3
2015-Mar-19 17:33N 40°39' W 074°11'2 1.9
2015-Mar-19 16:34N 40°37' W 074°12'2 0.2
2015-Mar-19 06:06N 40°36' W 074°12'2 1.0
2015-Mar-19 04:24N 40°34' W 074°13'3 2.7
2015-Mar-19 03:27N 40°32' W 074°15'0 0.2
2015-Mar-19 02:27N 40°32' W 074°15'  
Track history (hours):
 
Tides and Currents Weather Stations Pressure Air Temp Water Temp Dewpoint Dewpoint Depression Visibility Wind Speed Wind Dir Waves Ship Positions

Al Cenac

Owner: Caillou Island Towing Co, Inc., Houma, LA. More information available from US FCC via Universal Licensing System and Coast Guard Vessel Documentation Center.

Last reported at 2015-Mar-29 02:13 UTC. Time now 2015-Mar-29 04:21 UTC.
Position N 40°33' W 074°15'.

; draft 10 m.

MMSI: 367158530.

Date/timePositionNaut miles runAvg speedWind from/ knotsBaromVisibWave heightAir tempDewpointWater temp
2015-Mar-29 02:13N 40°33' W 074°15'0 0.0
2015-Mar-29 00:13N 40°33' W 074°15'1 0.7
2015-Mar-28 23:30N 40°32' W 074°15'2 1.8
2015-Mar-28 22:31N 40°33' W 074°13'4 4.0
2015-Mar-28 21:33N 40°37' W 074°12'4 0.8
2015-Mar-28 16:32N 40°33' W 074°14'7 6.2
2015-Mar-28 15:28N 40°38' W 074°08'0 0.0
2015-Mar-28 14:32N 40°38' W 074°08'0 0.0
2015-Mar-28 13:32N 40°38' W 074°08'0 0.0
2015-Mar-28 12:33N 40°38' W 074°08'0 0.0
2015-Mar-28 11:31N 40°38' W 074°08'4 4.7
2015-Mar-28 10:34N 40°36' W 074°12'3 0.6
2015-Mar-28 06:33N 40°38' W 074°12'3 2.8
2015-Mar-28 05:27N 40°38' W 074°08'0 0.0
2015-Mar-28 04:34N 40°38' W 074°08'0 0.0
2015-Mar-28 03:28N 40°38' W 074°08'0 0.0
2015-Mar-28 02:32N 40°38' W 074°08'0 0.0
2015-Mar-28 01:21N 40°38' W 074°08'0 0.0
2015-Mar-28 00:27N 40°38' W 074°08'0 0.0
2015-Mar-27 23:31N 40°38' W 074°08'0 0.0
2015-Mar-27 22:26N 40°38' W 074°08'0 0.0
2015-Mar-27 21:32N 40°38' W 074°08'3 3.0
2015-Mar-27 20:33N 40°38' W 074°12'2 1.8
2015-Mar-27 19:30N 40°36' W 074°12'0 0.0
2015-Mar-27 18:30N 40°36' W 074°12'0 0.0
2015-Mar-27 17:25N 40°36' W 074°12'1 0.7
2015-Mar-27 16:31N 40°36' W 074°12'0 0.0
2015-Mar-27 15:32N 40°36' W 074°12'4 2.0
2015-Mar-27 13:33N 40°39' W 074°09'3 2.6
2015-Mar-27 12:32N 40°39' W 074°05'2 2.0
2015-Mar-27 11:33N 40°39' W 074°08'0 0.3
2015-Mar-27 10:33N 40°38' W 074°08'0 0.0
2015-Mar-27 09:31N 40°38' W 074°08'0 0.0
2015-Mar-27 01:03N 40°39' W 074°08'2 4.0
2015-Mar-27 00:33N 40°39' W 074°05'1 0.6
2015-Mar-26 23:31N 40°39' W 074°06'5 4.8
2015-Mar-26 22:24N 40°36' W 074°12'2 0.1
2015-Mar-26 03:15N 40°39' W 074°11'1714300.4
2015-Mar-25 21:33N 40°39' W 111°51'17171738.2
2015-Mar-25 20:34N 40°38' W 074°08'0 0.0
2015-Mar-25 19:22N 40°38' W 074°08'0 0.0
2015-Mar-25 07:27N 40°38' W 074°08'0 0.0
2015-Mar-25 05:21N 40°38' W 074°08'1 1.8
2015-Mar-25 04:33N 40°39' W 074°06'0 0.1
2015-Mar-25 02:29N 40°39' W 074°06'3 3.3
2015-Mar-25 01:33N 40°41' W 074°03'8 7.7
2015-Mar-25 00:30N 40°47' W 073°56'5 4.8
2015-Mar-24 23:33N 40°43' W 073°58'9 9.1
2015-Mar-24 22:33N 40°38' W 074°09'8 7.2
2015-Mar-24 21:31N 40°33' W 074°15'6 0.5
2015-Mar-24 09:30N 40°38' W 074°12'3 1.0
2015-Mar-24 06:32N 40°38' W 074°08'1 0.1
2015-Mar-23 21:33N 40°39' W 074°07'2 1.6
2015-Mar-23 20:33N 40°40' W 074°08'1 1.2
2015-Mar-23 19:33N 40°41' W 074°08'2 0.5
2015-Mar-23 14:12N 40°38' W 074°08'0 0.0
2015-Mar-23 13:31N 40°38' W 074°08'0 0.0
2015-Mar-23 12:25N 40°38' W 074°08'0 0.0
2015-Mar-23 11:32N 40°38' W 074°08'0 0.0
2015-Mar-23 10:21N 40°38' W 074°08'0 0.0
2015-Mar-23 09:27N 40°38' W 074°08'0 0.0
2015-Mar-23 05:16N 40°38' W 074°08'3 4.5
2015-Mar-23 04:31N 40°38' W 074°12'1 0.5
2015-Mar-23 02:03N 40°37' W 074°12'5 8.2
2015-Mar-23 01:30N 40°33' W 074°15'6 3.1
2015-Mar-22 23:27N 40°38' W 074°12'3 1.2
2015-Mar-22 20:33N 40°39' W 074°07'1 0.8
2015-Mar-22 19:11N 40°39' W 074°06'5 1.5
2015-Mar-22 16:12N 40°38' W 074°12'3 3.7
2015-Mar-22 15:24N 40°38' W 074°08'0 0.0
2015-Mar-22 13:14N 40°38' W 074°08'1 1.5
2015-Mar-22 12:32N 40°39' W 074°07'1 0.9
2015-Mar-22 11:23N 40°38' W 074°08'0 0.0
2015-Mar-22 10:15N 40°38' W 074°08'0 0.0
2015-Mar-22 07:28N 40°38' W 074°08'4 3.1
2015-Mar-22 06:13N 40°37' W 074°12'2 0.6
2015-Mar-22 02:11N 40°39' W 074°11'4 7.0
2015-Mar-22 01:34N 40°39' W 074°05'4 4.2
2015-Mar-22 00:33N 40°39' W 074°11'1 0.2
2015-Mar-21 19:33N 40°38' W 074°09'2 2.0
2015-Mar-21 18:32N 40°39' W 074°07'0 0.0
2015-Mar-21 17:32N 40°39' W 074°07'1 0.3
2015-Mar-21 14:16N 40°38' W 074°08'0 0.0
2015-Mar-21 13:23N 40°38' W 074°08'0 0.0
2015-Mar-21 12:29N 40°38' W 074°08'0 0.0
2015-Mar-21 11:30N 40°38' W 074°08'0 0.0
2015-Mar-21 10:13N 40°38' W 074°08'0 0.0
2015-Mar-21 09:07N 40°38' W 074°08'2 0.4
2015-Mar-21 04:32N 40°39' W 074°05'11 9.7
2015-Mar-21 03:24N 40°47' W 073°55'5 5.9
2015-Mar-21 02:33N 40°43' W 073°59'6 6.0
2015-Mar-21 01:33N 40°39' W 074°05'7 1.7
2015-Mar-20 21:08N 40°34' W 074°13'5 0.5
2015-Mar-20 12:29N 40°39' W 074°11'1 1.2
2015-Mar-20 11:33N 40°38' W 074°09'1 1.1
2015-Mar-20 10:23N 40°38' W 074°08'0 0.0
2015-Mar-20 00:33N 40°38' W 074°08'1 0.8
2015-Mar-19 23:33N 40°38' W 074°09'1 0.7
2015-Mar-19 22:28N 40°39' W 074°10'0 0.0
2015-Mar-19 21:05N 40°39' W 074°10'0 0.0
2015-Mar-19 20:24N 40°39' W 074°10'0 0.0
2015-Mar-19 19:24N 40°39' W 074°10'1 0.3
2015-Mar-19 17:33N 40°39' W 074°11'2 1.9
2015-Mar-19 16:34N 40°37' W 074°12'2 0.2
2015-Mar-19 06:06N 40°36' W 074°12'2 1.0
2015-Mar-19 04:24N 40°34' W 074°13'3 2.7
2015-Mar-19 03:27N 40°32' W 074°15'0 0.2
2015-Mar-19 02:27N 40°32' W 074°15'  

Dump ship's entire track history